sensor_id;sensor_type;location;lat;lon;timestamp;P1;durP1;ratioP1;P2;durP2;ratioP2
4726;SDS011;2377;51.734;8.950;2024-03-25T00:01:55;17.90;;;4.63;;
4726;SDS011;2377;51.734;8.950;2024-03-25T00:04:21;16.37;;;4.70;;
4726;SDS011;2377;51.734;8.950;2024-03-25T00:06:49;15.80;;;4.37;;
4726;SDS011;2377;51.734;8.950;2024-03-25T00:09:15;15.33;;;4.40;;
4726;SDS011;2377;51.734;8.950;2024-03-25T00:11:41;20.33;;;4.23;;
4726;SDS011;2377;51.734;8.950;2024-03-25T00:14:07;21.77;;;4.67;;
4726;SDS011;2377;51.734;8.950;2024-03-25T00:16:34;16.40;;;4.87;;
4726;SDS011;2377;51.734;8.950;2024-03-25T00:19:01;12.17;;;3.63;;
4726;SDS011;2377;51.734;8.950;2024-03-25T00:21:27;21.57;;;4.03;;
4726;SDS011;2377;51.734;8.950;2024-03-25T00:23:52;11.70;;;3.40;;
4726;SDS011;2377;51.734;8.950;2024-03-25T00:26:24;13.83;;;3.40;;
4726;SDS011;2377;51.734;8.950;2024-03-25T00:28:50;14.17;;;3.80;;
4726;SDS011;2377;51.734;8.950;2024-03-25T00:31:15;13.73;;;3.70;;
4726;SDS011;2377;51.734;8.950;2024-03-25T00:33:41;8.20;;;3.17;;
4726;SDS011;2377;51.734;8.950;2024-03-25T00:36:07;15.63;;;3.60;;
4726;SDS011;2377;51.734;8.950;2024-03-25T00:38:34;15.27;;;3.77;;
4726;SDS011;2377;51.734;8.950;2024-03-25T00:41:00;13.57;;;4.13;;
4726;SDS011;2377;51.734;8.950;2024-03-25T00:43:26;17.67;;;4.57;;
4726;SDS011;2377;51.734;8.950;2024-03-25T00:45:57;13.20;;;4.23;;
4726;SDS011;2377;51.734;8.950;2024-03-25T00:48:24;18.13;;;5.07;;
4726;SDS011;2377;51.734;8.950;2024-03-25T00:50:50;22.00;;;4.33;;
4726;SDS011;2377;51.734;8.950;2024-03-25T00:53:16;12.80;;;5.70;;
4726;SDS011;2377;51.734;8.950;2024-03-25T00:55:44;20.80;;;5.17;;
4726;SDS011;2377;51.734;8.950;2024-03-25T00:58:11;17.37;;;5.13;;
4726;SDS011;2377;51.734;8.950;2024-03-25T01:00:37;16.60;;;4.40;;
4726;SDS011;2377;51.734;8.950;2024-03-25T01:03:03;20.97;;;5.33;;
4726;SDS011;2377;51.734;8.950;2024-03-25T01:05:33;11.23;;;4.60;;
4726;SDS011;2377;51.734;8.950;2024-03-25T01:07:59;15.33;;;4.57;;
4726;SDS011;2377;51.734;8.950;2024-03-25T01:10:25;22.50;;;5.50;;
4726;SDS011;2377;51.734;8.950;2024-03-25T01:12:51;27.00;;;5.77;;
4726;SDS011;2377;51.734;8.950;2024-03-25T01:15:17;13.63;;;5.43;;
4726;SDS011;2377;51.734;8.950;2024-03-25T01:17:43;20.27;;;5.67;;
4726;SDS011;2377;51.734;8.950;2024-03-25T01:20:09;22.93;;;5.77;;
4726;SDS011;2377;51.734;8.950;2024-03-25T01:22:35;22.50;;;6.07;;
4726;SDS011;2377;51.734;8.950;2024-03-25T01:25:01;32.17;;;6.23;;
4726;SDS011;2377;51.734;8.950;2024-03-25T01:27:27;16.03;;;5.60;;
4726;SDS011;2377;51.734;8.950;2024-03-25T01:29:52;21.53;;;5.47;;
4726;SDS011;2377;51.734;8.950;2024-03-25T01:32:18;20.40;;;4.70;;
4726;SDS011;2377;51.734;8.950;2024-03-25T01:34:44;18.20;;;4.90;;
4726;SDS011;2377;51.734;8.950;2024-03-25T01:37:11;38.33;;;6.17;;
4726;SDS011;2377;51.734;8.950;2024-03-25T01:39:37;19.00;;;5.60;;
4726;SDS011;2377;51.734;8.950;2024-03-25T01:42:04;34.17;;;7.23;;
4726;SDS011;2377;51.734;8.950;2024-03-25T01:44:30;19.63;;;5.80;;
4726;SDS011;2377;51.734;8.950;2024-03-25T01:46:56;24.30;;;6.40;;
4726;SDS011;2377;51.734;8.950;2024-03-25T01:49:21;21.33;;;6.20;;
4726;SDS011;2377;51.734;8.950;2024-03-25T01:51:52;22.43;;;6.20;;
4726;SDS011;2377;51.734;8.950;2024-03-25T01:54:19;23.07;;;5.90;;
4726;SDS011;2377;51.734;8.950;2024-03-25T01:56:47;17.60;;;5.73;;
4726;SDS011;2377;51.734;8.950;2024-03-25T01:59:16;21.20;;;6.77;;
4726;SDS011;2377;51.734;8.950;2024-03-25T02:01:44;12.93;;;5.60;;
4726;SDS011;2377;51.734;8.950;2024-03-25T02:04:11;21.73;;;6.30;;
4726;SDS011;2377;51.734;8.950;2024-03-25T02:06:38;16.60;;;5.33;;
4726;SDS011;2377;51.734;8.950;2024-03-25T02:09:09;12.53;;;5.93;;
4726;SDS011;2377;51.734;8.950;2024-03-25T02:11:39;21.90;;;5.87;;
4726;SDS011;2377;51.734;8.950;2024-03-25T02:14:06;15.63;;;4.67;;
4726;SDS011;2377;51.734;8.950;2024-03-25T02:16:34;18.67;;;5.70;;
4726;SDS011;2377;51.734;8.950;2024-03-25T02:19:00;24.83;;;5.20;;
4726;SDS011;2377;51.734;8.950;2024-03-25T02:21:27;18.20;;;4.47;;
4726;SDS011;2377;51.734;8.950;2024-03-25T02:23:53;20.20;;;5.50;;
4726;SDS011;2377;51.734;8.950;2024-03-25T02:26:25;22.67;;;4.80;;
4726;SDS011;2377;51.734;8.950;2024-03-25T02:28:51;20.40;;;5.10;;
4726;SDS011;2377;51.734;8.950;2024-03-25T02:31:18;17.53;;;5.40;;
4726;SDS011;2377;51.734;8.950;2024-03-25T02:33:44;23.53;;;5.27;;
4726;SDS011;2377;51.734;8.950;2024-03-25T02:36:11;27.97;;;5.50;;
4726;SDS011;2377;51.734;8.950;2024-03-25T02:38:37;14.67;;;4.97;;
4726;SDS011;2377;51.734;8.950;2024-03-25T02:41:09;17.40;;;5.13;;
4726;SDS011;2377;51.734;8.950;2024-03-25T02:43:36;17.50;;;5.97;;
4726;SDS011;2377;51.734;8.950;2024-03-25T02:46:02;20.40;;;5.00;;
4726;SDS011;2377;51.734;8.950;2024-03-25T02:48:27;13.63;;;5.07;;
4726;SDS011;2377;51.734;8.950;2024-03-25T02:50:53;20.23;;;6.13;;
4726;SDS011;2377;51.734;8.950;2024-03-25T02:53:20;17.90;;;5.70;;
4726;SDS011;2377;51.734;8.950;2024-03-25T02:55:49;20.50;;;5.30;;
4726;SDS011;2377;51.734;8.950;2024-03-25T02:58:16;25.17;;;5.80;;
4726;SDS011;2377;51.734;8.950;2024-03-25T03:00:43;20.73;;;5.87;;
4726;SDS011;2377;51.734;8.950;2024-03-25T03:03:09;25.17;;;5.30;;
4726;SDS011;2377;51.734;8.950;2024-03-25T03:05:35;27.73;;;6.40;;
4726;SDS011;2377;51.734;8.950;2024-03-25T03:08:06;16.87;;;6.07;;
4726;SDS011;2377;51.734;8.950;2024-03-25T03:10:32;12.10;;;5.30;;
4726;SDS011;2377;51.734;8.950;2024-03-25T03:13:01;18.80;;;6.40;;
4726;SDS011;2377;51.734;8.950;2024-03-25T03:15:27;22.10;;;6.30;;
4726;SDS011;2377;51.734;8.950;2024-03-25T03:17:54;22.87;;;6.30;;
4726;SDS011;2377;51.734;8.950;2024-03-25T03:20:20;19.80;;;5.93;;
4726;SDS011;2377;51.734;8.950;2024-03-25T03:22:47;20.97;;;6.30;;
4726;SDS011;2377;51.734;8.950;2024-03-25T03:25:13;21.37;;;5.47;;
4726;SDS011;2377;51.734;8.950;2024-03-25T03:27:39;20.97;;;6.87;;
4726;SDS011;2377;51.734;8.950;2024-03-25T03:30:05;26.77;;;7.20;;
4726;SDS011;2377;51.734;8.950;2024-03-25T03:32:31;21.30;;;6.87;;
4726;SDS011;2377;51.734;8.950;2024-03-25T03:34:57;20.53;;;7.80;;
4726;SDS011;2377;51.734;8.950;2024-03-25T03:37:23;22.50;;;6.43;;
4726;SDS011;2377;51.734;8.950;2024-03-25T03:39:49;20.03;;;5.73;;
4726;SDS011;2377;51.734;8.950;2024-03-25T03:42:17;23.30;;;7.00;;
4726;SDS011;2377;51.734;8.950;2024-03-25T03:44:43;21.90;;;5.97;;
4726;SDS011;2377;51.734;8.950;2024-03-25T03:47:09;26.67;;;7.60;;
4726;SDS011;2377;51.734;8.950;2024-03-25T03:49:38;21.60;;;6.40;;
4726;SDS011;2377;51.734;8.950;2024-03-25T03:52:05;23.13;;;6.60;;
4726;SDS011;2377;51.734;8.950;2024-03-25T03:54:31;24.60;;;6.07;;
4726;SDS011;2377;51.734;8.950;2024-03-25T03:56:57;18.53;;;6.63;;
4726;SDS011;2377;51.734;8.950;2024-03-25T03:59:23;16.70;;;6.60;;
4726;SDS011;2377;51.734;8.950;2024-03-25T04:01:49;28.50;;;6.33;;
4726;SDS011;2377;51.734;8.950;2024-03-25T04:04:15;24.00;;;7.07;;
4726;SDS011;2377;51.734;8.950;2024-03-25T04:06:41;18.90;;;6.90;;
4726;SDS011;2377;51.734;8.950;2024-03-25T04:09:07;26.17;;;5.90;;
4726;SDS011;2377;51.734;8.950;2024-03-25T04:11:37;27.37;;;7.73;;
4726;SDS011;2377;51.734;8.950;2024-03-25T04:14:03;25.13;;;7.57;;
4726;SDS011;2377;51.734;8.950;2024-03-25T04:16:29;27.17;;;7.63;;
4726;SDS011;2377;51.734;8.950;2024-03-25T04:18:56;23.07;;;7.03;;
4726;SDS011;2377;51.734;8.950;2024-03-25T04:21:23;27.47;;;7.50;;
4726;SDS011;2377;51.734;8.950;2024-03-25T04:23:49;29.43;;;7.53;;
4726;SDS011;2377;51.734;8.950;2024-03-25T04:26:18;21.87;;;7.10;;
4726;SDS011;2377;51.734;8.950;2024-03-25T04:28:44;19.70;;;7.37;;
4726;SDS011;2377;51.734;8.950;2024-03-25T04:31:10;22.90;;;7.70;;
4726;SDS011;2377;51.734;8.950;2024-03-25T04:33:36;28.60;;;8.10;;
4726;SDS011;2377;51.734;8.950;2024-03-25T04:36:02;17.80;;;6.80;;
4726;SDS011;2377;51.734;8.950;2024-03-25T04:38:28;23.90;;;7.20;;
4726;SDS011;2377;51.734;8.950;2024-03-25T04:40:56;21.03;;;7.10;;
4726;SDS011;2377;51.734;8.950;2024-03-25T04:43:21;24.27;;;8.20;;
4726;SDS011;2377;51.734;8.950;2024-03-25T04:45:47;25.13;;;7.30;;
4726;SDS011;2377;51.734;8.950;2024-03-25T04:48:14;25.53;;;7.77;;
4726;SDS011;2377;51.734;8.950;2024-03-25T04:50:43;27.10;;;7.43;;
4726;SDS011;2377;51.734;8.950;2024-03-25T04:53:08;32.53;;;7.90;;
4726;SDS011;2377;51.734;8.950;2024-03-25T04:55:37;26.17;;;8.93;;
4726;SDS011;2377;51.734;8.950;2024-03-25T04:58:03;26.57;;;8.60;;
4726;SDS011;2377;51.734;8.950;2024-03-25T05:00:29;39.80;;;8.90;;
4726;SDS011;2377;51.734;8.950;2024-03-25T05:02:55;20.50;;;7.60;;
4726;SDS011;2377;51.734;8.950;2024-03-25T05:05:21;18.90;;;7.93;;
4726;SDS011;2377;51.734;8.950;2024-03-25T05:07:47;20.37;;;7.53;;
4726;SDS011;2377;51.734;8.950;2024-03-25T05:10:13;22.07;;;7.10;;
4726;SDS011;2377;51.734;8.950;2024-03-25T05:12:40;23.37;;;7.47;;
4726;SDS011;2377;51.734;8.950;2024-03-25T05:15:05;24.23;;;7.77;;
4726;SDS011;2377;51.734;8.950;2024-03-25T05:17:32;20.47;;;7.17;;
4726;SDS011;2377;51.734;8.950;2024-03-25T05:19:57;25.80;;;8.43;;
4726;SDS011;2377;51.734;8.950;2024-03-25T05:22:23;37.23;;;9.00;;
4726;SDS011;2377;51.734;8.950;2024-03-25T05:24:54;27.03;;;8.80;;
4726;SDS011;2377;51.734;8.950;2024-03-25T05:27:20;35.57;;;8.93;;
4726;SDS011;2377;51.734;8.950;2024-03-25T05:29:48;19.53;;;8.33;;
4726;SDS011;2377;51.734;8.950;2024-03-25T05:32:15;27.60;;;9.67;;
4726;SDS011;2377;51.734;8.950;2024-03-25T05:34:42;18.70;;;8.77;;
4726;SDS011;2377;51.734;8.950;2024-03-25T05:37:11;21.23;;;7.63;;
4726;SDS011;2377;51.734;8.950;2024-03-25T05:39:37;27.07;;;8.07;;
4726;SDS011;2377;51.734;8.950;2024-03-25T05:42:03;19.20;;;7.83;;
4726;SDS011;2377;51.734;8.950;2024-03-25T05:44:36;25.23;;;8.17;;
4726;SDS011;2377;51.734;8.950;2024-03-25T05:47:02;38.63;;;9.37;;
4726;SDS011;2377;51.734;8.950;2024-03-25T05:49:31;29.23;;;7.30;;
4726;SDS011;2377;51.734;8.950;2024-03-25T05:51:57;18.93;;;8.13;;
4726;SDS011;2377;51.734;8.950;2024-03-25T05:54:24;18.90;;;7.23;;
4726;SDS011;2377;51.734;8.950;2024-03-25T05:56:50;16.43;;;6.60;;
4726;SDS011;2377;51.734;8.950;2024-03-25T05:59:15;22.13;;;7.77;;
4726;SDS011;2377;51.734;8.950;2024-03-25T06:01:41;19.33;;;7.57;;
4726;SDS011;2377;51.734;8.950;2024-03-25T06:04:07;19.60;;;7.20;;
4726;SDS011;2377;51.734;8.950;2024-03-25T06:06:32;20.50;;;7.37;;
4726;SDS011;2377;51.734;8.950;2024-03-25T06:09:08;18.60;;;6.40;;
4726;SDS011;2377;51.734;8.950;2024-03-25T06:11:35;27.30;;;7.17;;
4726;SDS011;2377;51.734;8.950;2024-03-25T06:14:01;17.63;;;6.43;;
4726;SDS011;2377;51.734;8.950;2024-03-25T06:16:28;16.43;;;6.60;;
4726;SDS011;2377;51.734;8.950;2024-03-25T06:18:58;20.27;;;7.10;;
4726;SDS011;2377;51.734;8.950;2024-03-25T06:21:27;23.80;;;7.93;;
4726;SDS011;2377;51.734;8.950;2024-03-25T06:23:57;20.07;;;7.63;;
4726;SDS011;2377;51.734;8.950;2024-03-25T06:26:22;20.97;;;7.47;;
4726;SDS011;2377;51.734;8.950;2024-03-25T06:28:49;23.10;;;7.27;;
4726;SDS011;2377;51.734;8.950;2024-03-25T06:31:15;20.43;;;7.17;;
4726;SDS011;2377;51.734;8.950;2024-03-25T06:34:00;20.37;;;7.27;;
4726;SDS011;2377;51.734;8.950;2024-03-25T06:36:42;25.03;;;7.43;;
4726;SDS011;2377;51.734;8.950;2024-03-25T06:39:11;21.30;;;6.60;;
4726;SDS011;2377;51.734;8.950;2024-03-25T06:41:37;14.83;;;6.07;;
4726;SDS011;2377;51.734;8.950;2024-03-25T06:44:04;19.50;;;7.00;;
4726;SDS011;2377;51.734;8.950;2024-03-25T06:46:32;19.77;;;6.83;;
4726;SDS011;2377;51.734;8.950;2024-03-25T06:48:59;31.13;;;7.90;;
4726;SDS011;2377;51.734;8.950;2024-03-25T06:51:25;33.73;;;8.97;;
4726;SDS011;2377;51.734;8.950;2024-03-25T06:53:53;26.57;;;8.30;;
4726;SDS011;2377;51.734;8.950;2024-03-25T06:56:20;26.23;;;9.13;;
4726;SDS011;2377;51.734;8.950;2024-03-25T06:58:51;24.17;;;8.60;;
4726;SDS011;2377;51.734;8.950;2024-03-25T07:01:17;31.53;;;8.60;;
4726;SDS011;2377;51.734;8.950;2024-03-25T07:03:44;29.97;;;10.07;;
4726;SDS011;2377;51.734;8.950;2024-03-25T07:06:12;20.37;;;9.20;;
4726;SDS011;2377;51.734;8.950;2024-03-25T07:08:38;29.77;;;10.93;;
4726;SDS011;2377;51.734;8.950;2024-03-25T07:11:06;28.53;;;10.60;;
4726;SDS011;2377;51.734;8.950;2024-03-25T07:13:31;37.23;;;10.83;;
4726;SDS011;2377;51.734;8.950;2024-03-25T07:15:59;33.07;;;10.70;;
4726;SDS011;2377;51.734;8.950;2024-03-25T07:18:24;26.73;;;9.37;;
4726;SDS011;2377;51.734;8.950;2024-03-25T07:20:50;43.10;;;11.10;;
4726;SDS011;2377;51.734;8.950;2024-03-25T07:23:17;35.20;;;12.00;;
4726;SDS011;2377;51.734;8.950;2024-03-25T07:25:43;27.23;;;12.03;;
4726;SDS011;2377;51.734;8.950;2024-03-25T07:28:09;27.07;;;12.67;;
4726;SDS011;2377;51.734;8.950;2024-03-25T07:30:35;33.90;;;12.60;;
4726;SDS011;2377;51.734;8.950;2024-03-25T07:33:02;33.23;;;12.37;;
4726;SDS011;2377;51.734;8.950;2024-03-25T07:35:30;32.70;;;13.23;;
4726;SDS011;2377;51.734;8.950;2024-03-25T07:37:56;30.90;;;11.50;;
4726;SDS011;2377;51.734;8.950;2024-03-25T07:40:22;29.10;;;12.17;;
4726;SDS011;2377;51.734;8.950;2024-03-25T07:42:48;35.23;;;12.97;;
4726;SDS011;2377;51.734;8.950;2024-03-25T07:45:14;30.70;;;12.80;;
4726;SDS011;2377;51.734;8.950;2024-03-25T07:47:40;28.87;;;12.13;;
4726;SDS011;2377;51.734;8.950;2024-03-25T07:50:06;35.37;;;12.10;;
4726;SDS011;2377;51.734;8.950;2024-03-25T07:52:33;39.13;;;11.97;;
4726;SDS011;2377;51.734;8.950;2024-03-25T07:55:05;23.00;;;10.20;;
4726;SDS011;2377;51.734;8.950;2024-03-25T07:57:34;27.80;;;10.13;;
4726;SDS011;2377;51.734;8.950;2024-03-25T08:00:01;25.63;;;9.40;;
4726;SDS011;2377;51.734;8.950;2024-03-25T08:02:30;22.73;;;8.13;;
4726;SDS011;2377;51.734;8.950;2024-03-25T08:04:56;26.03;;;8.93;;
4726;SDS011;2377;51.734;8.950;2024-03-25T08:07:28;23.27;;;8.17;;
4726;SDS011;2377;51.734;8.950;2024-03-25T08:10:13;12.03;;;6.87;;
4726;SDS011;2377;51.734;8.950;2024-03-25T08:12:38;17.90;;;6.90;;
4726;SDS011;2377;51.734;8.950;2024-03-25T08:15:04;33.87;;;8.87;;
4726;SDS011;2377;51.734;8.950;2024-03-25T08:17:30;22.83;;;7.90;;
4726;SDS011;2377;51.734;8.950;2024-03-25T08:20:02;27.13;;;8.63;;
4726;SDS011;2377;51.734;8.950;2024-03-25T08:22:29;20.43;;;7.47;;
4726;SDS011;2377;51.734;8.950;2024-03-25T08:24:54;35.53;;;8.40;;
4726;SDS011;2377;51.734;8.950;2024-03-25T08:27:20;22.57;;;7.60;;
4726;SDS011;2377;51.734;8.950;2024-03-25T08:29:46;17.30;;;6.90;;
4726;SDS011;2377;51.734;8.950;2024-03-25T08:32:12;17.20;;;6.50;;
4726;SDS011;2377;51.734;8.950;2024-03-25T08:34:37;20.47;;;6.40;;
4726;SDS011;2377;51.734;8.950;2024-03-25T08:37:03;20.90;;;6.37;;
4726;SDS011;2377;51.734;8.950;2024-03-25T08:39:29;17.97;;;5.77;;
4726;SDS011;2377;51.734;8.950;2024-03-25T08:41:55;8.60;;;3.97;;
4726;SDS011;2377;51.734;8.950;2024-03-25T08:44:20;10.57;;;4.87;;
4726;SDS011;2377;51.734;8.950;2024-03-25T08:46:46;15.00;;;4.13;;
4726;SDS011;2377;51.734;8.950;2024-03-25T08:49:12;10.47;;;4.33;;
4726;SDS011;2377;51.734;8.950;2024-03-25T08:51:38;10.90;;;4.30;;
4726;SDS011;2377;51.734;8.950;2024-03-25T08:54:04;11.30;;;3.90;;
4726;SDS011;2377;51.734;8.950;2024-03-25T08:56:29;17.80;;;4.73;;
4726;SDS011;2377;51.734;8.950;2024-03-25T08:58:55;13.97;;;4.63;;
4726;SDS011;2377;51.734;8.950;2024-03-25T09:01:22;9.83;;;4.80;;
4726;SDS011;2377;51.734;8.950;2024-03-25T09:03:49;17.60;;;5.30;;
4726;SDS011;2377;51.734;8.950;2024-03-25T09:06:15;11.97;;;4.40;;
4726;SDS011;2377;51.734;8.950;2024-03-25T09:08:41;14.60;;;5.73;;
4726;SDS011;2377;51.734;8.950;2024-03-25T09:11:26;15.60;;;5.70;;
4726;SDS011;2377;51.734;8.950;2024-03-25T09:13:52;14.93;;;6.43;;
4726;SDS011;2377;51.734;8.950;2024-03-25T09:16:18;16.40;;;7.10;;
4726;SDS011;2377;51.734;8.950;2024-03-25T09:18:44;18.03;;;8.67;;
4726;SDS011;2377;51.734;8.950;2024-03-25T09:21:10;22.30;;;10.20;;
4726;SDS011;2377;51.734;8.950;2024-03-25T09:23:37;20.80;;;9.00;;
4726;SDS011;2377;51.734;8.950;2024-03-25T09:26:03;20.13;;;8.80;;
4726;SDS011;2377;51.734;8.950;2024-03-25T09:28:29;25.23;;;10.00;;
4726;SDS011;2377;51.734;8.950;2024-03-25T09:30:55;21.43;;;8.87;;
4726;SDS011;2377;51.734;8.950;2024-03-25T09:33:20;22.33;;;9.70;;
4726;SDS011;2377;51.734;8.950;2024-03-25T09:35:47;24.00;;;10.23;;
4726;SDS011;2377;51.734;8.950;2024-03-25T09:38:12;19.70;;;8.80;;
4726;SDS011;2377;51.734;8.950;2024-03-25T09:40:41;26.63;;;10.87;;
4726;SDS011;2377;51.734;8.950;2024-03-25T09:43:13;20.10;;;9.70;;
4726;SDS011;2377;51.734;8.950;2024-03-25T09:45:51;21.67;;;10.27;;
4726;SDS011;2377;51.734;8.950;2024-03-25T09:48:18;24.97;;;9.40;;
4726;SDS011;2377;51.734;8.950;2024-03-25T09:50:46;24.80;;;10.80;;
4726;SDS011;2377;51.734;8.950;2024-03-25T09:53:14;25.33;;;10.33;;
4726;SDS011;2377;51.734;8.950;2024-03-25T09:55:40;18.83;;;9.87;;
4726;SDS011;2377;51.734;8.950;2024-03-25T09:58:07;24.33;;;9.20;;
4726;SDS011;2377;51.734;8.950;2024-03-25T10:00:33;28.77;;;9.03;;
4726;SDS011;2377;51.734;8.950;2024-03-25T10:02:59;23.77;;;9.23;;
4726;SDS011;2377;51.734;8.950;2024-03-25T10:05:25;27.00;;;9.33;;
4726;SDS011;2377;51.734;8.950;2024-03-25T10:07:51;16.13;;;8.23;;
4726;SDS011;2377;51.734;8.950;2024-03-25T10:10:19;17.13;;;7.70;;
4726;SDS011;2377;51.734;8.950;2024-03-25T10:12:45;16.50;;;7.53;;
4726;SDS011;2377;51.734;8.950;2024-03-25T10:15:17;18.93;;;7.03;;
4726;SDS011;2377;51.734;8.950;2024-03-25T10:17:43;16.63;;;6.20;;
4726;SDS011;2377;51.734;8.950;2024-03-25T10:20:13;21.43;;;7.10;;
4726;SDS011;2377;51.734;8.950;2024-03-25T10:22:43;9.70;;;4.60;;
4726;SDS011;2377;51.734;8.950;2024-03-25T10:27:52;10.77;;;4.63;;
4726;SDS011;2377;51.734;8.950;2024-03-25T10:30:28;13.43;;;4.93;;
4726;SDS011;2377;51.734;8.950;2024-03-25T10:33:01;15.10;;;5.23;;
4726;SDS011;2377;51.734;8.950;2024-03-25T10:35:31;18.20;;;5.03;;
4726;SDS011;2377;51.734;8.950;2024-03-25T10:38:03;17.27;;;5.43;;
4726;SDS011;2377;51.734;8.950;2024-03-25T10:40:34;18.13;;;5.10;;
4726;SDS011;2377;51.734;8.950;2024-03-25T10:43:05;11.87;;;4.60;;
4726;SDS011;2377;51.734;8.950;2024-03-25T10:45:47;11.60;;;5.30;;
4726;SDS011;2377;51.734;8.950;2024-03-25T10:48:20;13.93;;;5.97;;
4726;SDS011;2377;51.734;8.950;2024-03-25T10:50:53;16.40;;;5.87;;
4726;SDS011;2377;51.734;8.950;2024-03-25T10:53:22;14.87;;;7.00;;
4726;SDS011;2377;51.734;8.950;2024-03-25T10:55:50;14.53;;;7.30;;
4726;SDS011;2377;51.734;8.950;2024-03-25T10:58:19;18.67;;;7.40;;
4726;SDS011;2377;51.734;8.950;2024-03-25T11:00:48;21.07;;;7.30;;
4726;SDS011;2377;51.734;8.950;2024-03-25T11:03:17;22.93;;;7.53;;
4726;SDS011;2377;51.734;8.950;2024-03-25T11:05:43;16.03;;;4.03;;
4726;SDS011;2377;51.734;8.950;2024-03-25T11:08:12;9.13;;;3.10;;
4726;SDS011;2377;51.734;8.950;2024-03-25T11:10:40;10.03;;;3.17;;
4726;SDS011;2377;51.734;8.950;2024-03-25T11:13:11;7.00;;;2.30;;
4726;SDS011;2377;51.734;8.950;2024-03-25T11:15:47;7.90;;;2.30;;
4726;SDS011;2377;51.734;8.950;2024-03-25T11:18:17;8.40;;;2.37;;
4726;SDS011;2377;51.734;8.950;2024-03-25T11:21:04;7.33;;;2.27;;
4726;SDS011;2377;51.734;8.950;2024-03-25T11:23:38;5.00;;;2.20;;
4726;SDS011;2377;51.734;8.950;2024-03-25T11:26:16;6.40;;;2.90;;
4726;SDS011;2377;51.734;8.950;2024-03-25T11:28:49;7.20;;;2.70;;
4726;SDS011;2377;51.734;8.950;2024-03-25T11:31:15;6.57;;;3.17;;
4726;SDS011;2377;51.734;8.950;2024-03-25T11:33:42;6.13;;;2.50;;
4726;SDS011;2377;51.734;8.950;2024-03-25T11:36:07;8.73;;;3.40;;
4726;SDS011;2377;51.734;8.950;2024-03-25T11:38:34;4.30;;;3.10;;
4726;SDS011;2377;51.734;8.950;2024-03-25T11:41:03;9.33;;;4.03;;
4726;SDS011;2377;51.734;8.950;2024-03-25T11:43:30;9.97;;;3.07;;
4726;SDS011;2377;51.734;8.950;2024-03-25T11:45:55;9.13;;;3.57;;
4726;SDS011;2377;51.734;8.950;2024-03-25T11:48:21;17.77;;;4.10;;
4726;SDS011;2377;51.734;8.950;2024-03-25T11:50:47;12.23;;;3.67;;
4726;SDS011;2377;51.734;8.950;2024-03-25T11:53:13;12.50;;;4.20;;
4726;SDS011;2377;51.734;8.950;2024-03-25T11:55:48;16.07;;;4.67;;
4726;SDS011;2377;51.734;8.950;2024-03-25T11:58:15;11.13;;;3.87;;
4726;SDS011;2377;51.734;8.950;2024-03-25T12:00:44;8.67;;;4.00;;
4726;SDS011;2377;51.734;8.950;2024-03-25T12:03:14;17.70;;;5.07;;
4726;SDS011;2377;51.734;8.950;2024-03-25T12:05:41;13.07;;;4.33;;
4726;SDS011;2377;51.734;8.950;2024-03-25T12:08:08;13.80;;;4.60;;
4726;SDS011;2377;51.734;8.950;2024-03-25T12:10:35;16.17;;;5.00;;
4726;SDS011;2377;51.734;8.950;2024-03-25T12:13:21;12.30;;;4.73;;
4726;SDS011;2377;51.734;8.950;2024-03-25T12:15:48;17.07;;;4.93;;
4726;SDS011;2377;51.734;8.950;2024-03-25T12:18:15;10.47;;;4.37;;
4726;SDS011;2377;51.734;8.950;2024-03-25T12:20:41;12.50;;;4.67;;
4726;SDS011;2377;51.734;8.950;2024-03-25T12:23:07;10.13;;;4.40;;
4726;SDS011;2377;51.734;8.950;2024-03-25T12:25:33;10.37;;;4.70;;
4726;SDS011;2377;51.734;8.950;2024-03-25T12:28:02;11.30;;;4.57;;
4726;SDS011;2377;51.734;8.950;2024-03-25T12:30:55;10.97;;;4.20;;
4726;SDS011;2377;51.734;8.950;2024-03-25T12:33:22;15.57;;;5.37;;
4726;SDS011;2377;51.734;8.950;2024-03-25T12:35:51;8.30;;;3.80;;
4726;SDS011;2377;51.734;8.950;2024-03-25T12:38:21;6.40;;;3.10;;
4726;SDS011;2377;51.734;8.950;2024-03-25T12:40:51;7.30;;;3.73;;
4726;SDS011;2377;51.734;8.950;2024-03-25T12:43:18;11.50;;;3.80;;
4726;SDS011;2377;51.734;8.950;2024-03-25T12:45:45;12.53;;;3.23;;
4726;SDS011;2377;51.734;8.950;2024-03-25T12:48:11;10.27;;;4.00;;
4726;SDS011;2377;51.734;8.950;2024-03-25T12:50:37;8.10;;;3.67;;
4726;SDS011;2377;51.734;8.950;2024-03-25T12:53:04;8.43;;;3.50;;
4726;SDS011;2377;51.734;8.950;2024-03-25T12:55:30;9.83;;;3.43;;
4726;SDS011;2377;51.734;8.950;2024-03-25T12:57:57;8.50;;;3.53;;
4726;SDS011;2377;51.734;8.950;2024-03-25T13:00:23;15.57;;;3.43;;
4726;SDS011;2377;51.734;8.950;2024-03-25T13:02:48;6.90;;;3.10;;
4726;SDS011;2377;51.734;8.950;2024-03-25T13:05:15;6.63;;;2.63;;
4726;SDS011;2377;51.734;8.950;2024-03-25T13:07:41;8.07;;;2.63;;
4726;SDS011;2377;51.734;8.950;2024-03-25T13:10:07;10.93;;;2.73;;
4726;SDS011;2377;51.734;8.950;2024-03-25T13:12:34;10.70;;;3.60;;
4726;SDS011;2377;51.734;8.950;2024-03-25T13:15:00;8.70;;;3.10;;
4726;SDS011;2377;51.734;8.950;2024-03-25T13:17:25;10.37;;;4.80;;
4726;SDS011;2377;51.734;8.950;2024-03-25T13:19:51;8.47;;;5.00;;
4726;SDS011;2377;51.734;8.950;2024-03-25T13:22:17;11.33;;;3.60;;
4726;SDS011;2377;51.734;8.950;2024-03-25T13:24:42;9.40;;;3.53;;
4726;SDS011;2377;51.734;8.950;2024-03-25T13:27:08;10.23;;;3.00;;
4726;SDS011;2377;51.734;8.950;2024-03-25T13:29:34;12.33;;;3.50;;
4726;SDS011;2377;51.734;8.950;2024-03-25T13:32:02;9.23;;;2.73;;
4726;SDS011;2377;51.734;8.950;2024-03-25T13:34:28;10.27;;;3.03;;
4726;SDS011;2377;51.734;8.950;2024-03-25T13:36:54;7.77;;;3.43;;
4726;SDS011;2377;51.734;8.950;2024-03-25T13:39:20;13.03;;;2.77;;
4726;SDS011;2377;51.734;8.950;2024-03-25T13:41:46;5.83;;;2.53;;
4726;SDS011;2377;51.734;8.950;2024-03-25T13:44:12;9.30;;;2.90;;
4726;SDS011;2377;51.734;8.950;2024-03-25T13:46:37;12.30;;;3.30;;
4726;SDS011;2377;51.734;8.950;2024-03-25T13:49:03;11.17;;;2.67;;
4726;SDS011;2377;51.734;8.950;2024-03-25T13:51:29;5.63;;;3.13;;
4726;SDS011;2377;51.734;8.950;2024-03-25T13:53:55;8.80;;;3.00;;
4726;SDS011;2377;51.734;8.950;2024-03-25T13:56:21;9.30;;;3.03;;
4726;SDS011;2377;51.734;8.950;2024-03-25T13:58:46;4.50;;;2.70;;
4726;SDS011;2377;51.734;8.950;2024-03-25T14:01:12;8.93;;;3.63;;
4726;SDS011;2377;51.734;8.950;2024-03-25T14:03:38;6.57;;;2.90;;
4726;SDS011;2377;51.734;8.950;2024-03-25T14:06:03;8.20;;;2.60;;
4726;SDS011;2377;51.734;8.950;2024-03-25T14:08:29;8.83;;;3.10;;
4726;SDS011;2377;51.734;8.950;2024-03-25T14:10:58;10.67;;;2.80;;
4726;SDS011;2377;51.734;8.950;2024-03-25T14:13:26;9.63;;;3.00;;
4726;SDS011;2377;51.734;8.950;2024-03-25T14:15:53;8.43;;;2.40;;
4726;SDS011;2377;51.734;8.950;2024-03-25T14:18:19;9.37;;;2.50;;
4726;SDS011;2377;51.734;8.950;2024-03-25T14:20:44;5.67;;;2.33;;
4726;SDS011;2377;51.734;8.950;2024-03-25T14:23:11;11.37;;;2.97;;
4726;SDS011;2377;51.734;8.950;2024-03-25T14:25:37;10.53;;;2.80;;
4726;SDS011;2377;51.734;8.950;2024-03-25T14:28:03;10.93;;;3.00;;
4726;SDS011;2377;51.734;8.950;2024-03-25T14:30:29;5.97;;;2.57;;
4726;SDS011;2377;51.734;8.950;2024-03-25T14:32:55;6.03;;;2.47;;
4726;SDS011;2377;51.734;8.950;2024-03-25T14:35:21;8.33;;;2.47;;
4726;SDS011;2377;51.734;8.950;2024-03-25T14:37:48;11.80;;;6.17;;
4726;SDS011;2377;51.734;8.950;2024-03-25T14:40:14;17.93;;;9.37;;
4726;SDS011;2377;51.734;8.950;2024-03-25T14:42:42;9.23;;;3.87;;
4726;SDS011;2377;51.734;8.950;2024-03-25T14:45:11;6.80;;;2.40;;
4726;SDS011;2377;51.734;8.950;2024-03-25T14:47:36;10.30;;;3.27;;
4726;SDS011;2377;51.734;8.950;2024-03-25T14:50:02;4.70;;;1.97;;
4726;SDS011;2377;51.734;8.950;2024-03-25T14:52:30;4.00;;;2.00;;
4726;SDS011;2377;51.734;8.950;2024-03-25T14:54:56;4.90;;;2.10;;
4726;SDS011;2377;51.734;8.950;2024-03-25T14:57:21;2.73;;;1.80;;
4726;SDS011;2377;51.734;8.950;2024-03-25T14:59:47;3.60;;;2.00;;
4726;SDS011;2377;51.734;8.950;2024-03-25T15:02:13;8.10;;;2.27;;
4726;SDS011;2377;51.734;8.950;2024-03-25T15:04:39;7.80;;;2.30;;
4726;SDS011;2377;51.734;8.950;2024-03-25T15:07:09;10.53;;;2.30;;